England, Arkansas
Current Conditions -  °F | °C
As of 9:53 PM on Sunday 25 Jan 2015 (Local Time) from KLIT Reporting Station
Overcast Overcast  
Wind Chill: 42°   Ceiling: 4000
Heat Index: 48°   Visibility: 10mi
Dew Point: 32°   Wind: 16mph
Humidity: 54%   Direction: 310°NW
Pressure: 29.99"   Gusts: 26mph
Location:  34.54°N, 91.97°W
Report Text: KLIT 260353Z 31014G23KT 10SM OVC040 09/00 A2999 RMK AO2 SLP158 BINOVC T00890000
Loading
Personal Weather Stations






























Interactive Weather Map New forecast layout! Learn more

10-Day Weather Forecast

Advertisements
Track Severe Weather on mobile